createdAt,value
2022-11-10T00:02:36.456Z,61.989
2022-11-10T00:07:38.085Z,62.63068
2022-11-10T00:12:40.108Z,60.93795
2022-11-10T00:17:42.196Z,61.86761
2022-11-10T00:22:43.906Z,61.24075
2022-11-10T00:27:45.666Z,60.58834
2022-11-10T00:32:47.412Z,58.91624
2022-11-10T00:37:49.108Z,59.96392
2022-11-10T00:42:51.115Z,61.20584
2022-11-10T00:47:52.938Z,61.25094
2022-11-10T00:52:54.717Z,60.03513
2022-11-10T00:57:56.398Z,57.87626
2022-11-10T01:02:58.043Z,59.11351
2022-11-10T01:07:59.757Z,59.25601
2022-11-10T01:13:01.466Z,58.58396
2022-11-10T01:18:03.112Z,57.97099
2022-11-10T01:23:04.705Z,60.06965
2022-11-10T01:28:06.641Z,60.15957
2022-11-10T01:33:08.390Z,58.29606
2022-11-10T01:38:10.253Z,59.5254
2022-11-10T01:43:12.456Z,59.91378
2022-11-10T01:48:14.301Z,59.11064
2022-11-10T01:53:16.150Z,60.1241
2022-11-10T01:58:18.000Z,61.03585
2022-11-10T02:03:20.240Z,59.72
2022-11-10T02:08:22.254Z,59.1189
2022-11-10T02:13:24.309Z,58.84303
2022-11-10T02:18:26.081Z,59.58907
2022-11-10T02:23:27.688Z,59.26499
2022-11-10T02:28:29.353Z,59.4846
2022-11-10T02:33:30.979Z,60.63247
2022-11-10T02:38:32.853Z,60.87654
2022-11-10T02:43:34.522Z,59.90111
2022-11-10T02:48:36.239Z,61.75791
2022-11-10T02:53:37.859Z,60.70753
2022-11-10T02:58:39.620Z,60.16981
2022-11-10T03:03:41.343Z,59.99776
2022-11-10T03:08:43.001Z,59.33105
2022-11-10T03:13:58.968Z,61.23907
2022-11-10T03:19:02.477Z,60.32485
2022-11-10T03:24:04.094Z,60.86576
2022-11-10T03:29:05.839Z,63.33783
2022-11-10T03:34:07.498Z,59.67937
2022-11-10T03:39:09.157Z,60.20897
2022-11-10T03:44:10.844Z,60.62694
2022-11-10T03:49:12.579Z,59.45827
2022-11-10T03:54:14.309Z,60.05746
2022-11-10T03:59:16.037Z,60.21278
2022-11-10T04:04:17.804Z,60.08906
2022-11-10T04:09:19.617Z,59.60624
2022-11-10T04:14:21.282Z,59.59931
2022-11-10T04:19:22.925Z,58.98256
2022-11-10T04:24:24.773Z,59.48925
2022-11-10T04:29:26.660Z,60.19993
2022-11-10T04:34:28.425Z,61.16521
2022-11-10T04:39:30.180Z,60.24366
2022-11-10T04:44:31.769Z,60.17093
2022-11-10T04:49:33.426Z,61.05909
2022-11-10T04:54:35.055Z,62.87609
2022-11-10T04:59:36.703Z,62.11698
2022-11-10T05:04:38.328Z,64.77442
2022-11-10T05:09:39.974Z,62.70077
2022-11-10T05:14:41.717Z,62.44015
2022-11-10T05:19:43.455Z,64.1057
2022-11-10T05:24:45.130Z,65.24259
2022-11-10T05:29:46.726Z,65.31074
2022-11-10T05:34:48.345Z,64.69102
2022-11-10T05:39:50.037Z,65.45791
2022-11-10T05:44:51.860Z,64.92849
2022-11-10T05:49:53.776Z,64.37501
2022-11-10T05:54:55.596Z,62.8183
2022-11-10T05:59:57.225Z,62.82542
2022-11-10T06:04:58.855Z,63.37901
2022-11-10T06:10:00.551Z,65.30216
2022-11-10T06:15:02.276Z,61.71315
2022-11-10T06:20:04.025Z,62.5046
2022-11-10T06:25:06.123Z,61.27909
2022-11-10T06:30:07.833Z,59.78878
2022-11-10T06:35:09.677Z,60.72782
2022-11-10T06:40:11.384Z,61.76596
2022-11-10T06:45:13.050Z,60.47536
2022-11-10T06:50:14.747Z,61.26301
2022-11-10T06:55:16.390Z,66.2214
2022-11-10T07:00:18.214Z,62.97028
2022-11-10T07:05:19.908Z,62.10995
2022-11-10T07:10:21.720Z,61.79526
2022-11-10T07:15:23.459Z,60.91785
2022-11-10T07:20:25.116Z,59.73828
2022-11-10T07:25:26.753Z,62.94913
2022-11-10T07:30:28.542Z,61.5883
2022-11-10T07:35:30.200Z,64.56374
2022-11-10T07:40:31.847Z,63.88752
2022-11-10T07:45:33.731Z,63.95308
2022-11-10T07:50:35.538Z,65.13971
2022-11-10T07:55:37.468Z,63.5003
2022-11-10T08:00:39.333Z,62.40086
2022-11-10T08:05:41.140Z,61.11309
2022-11-10T08:10:42.937Z,58.78469
2022-11-10T08:15:44.618Z,58.61327
2022-11-10T08:20:46.228Z,60.32053
2022-11-10T08:25:47.974Z,61.15388
2022-11-10T08:30:49.763Z,60.23994
2022-11-10T08:35:51.434Z,59.22847
2022-11-10T08:40:53.162Z,60.05354
2022-11-10T08:45:54.966Z,58.26755
2022-11-10T08:50:56.666Z,59.34512
2022-11-10T08:55:58.285Z,59.86096
2022-11-10T09:01:00.702Z,59.7838
2022-11-10T09:06:02.480Z,60.34551
2022-11-10T09:11:04.311Z,60.66342
2022-11-10T09:16:06.134Z,59.53696
2022-11-10T09:21:07.826Z,61.22335
2022-11-10T09:26:09.456Z,62.03413
2022-11-10T09:31:11.076Z,59.16542
2022-11-10T09:36:12.790Z,60.34633
2022-11-10T09:41:14.468Z,60.27424
2022-11-10T09:46:16.078Z,58.96444
2022-11-10T09:51:17.769Z,57.20936
2022-11-10T09:56:19.541Z,59.39371
2022-11-10T10:01:21.255Z,57.87779
2022-11-10T10:06:22.920Z,58.34653
2022-11-10T10:11:24.688Z,57.39998
2022-11-10T10:16:26.627Z,56.23793
2022-11-10T10:21:28.385Z,57.0927
2022-11-10T10:26:30.113Z,56.09338
2022-11-10T10:31:31.766Z,56.8694
2022-11-10T10:36:33.478Z,58.00847
2022-11-10T10:41:35.347Z,56.5048
2022-11-10T10:46:37.042Z,57.99693
2022-11-10T10:51:38.650Z,58.55515
2022-11-10T10:56:40.304Z,56.36834
2022-11-10T11:01:42.032Z,56.74317
2022-11-10T11:06:43.754Z,58.19332
2022-11-10T11:11:45.693Z,58.46137
2022-11-10T11:16:47.311Z,57.48786
2022-11-10T11:21:48.947Z,57.52464
2022-11-10T11:26:50.580Z,55.73243
2022-11-10T11:31:52.455Z,55.73567
2022-11-10T11:36:54.142Z,55.55147
2022-11-10T11:41:55.877Z,55.74123
2022-11-10T11:46:57.503Z,59.60569
2022-11-10T11:51:59.126Z,57.90027
2022-11-10T11:57:00.795Z,55.65033
2022-11-10T12:02:02.533Z,57.89605
2022-11-10T12:07:04.319Z,57.0775
2022-11-10T12:12:06.069Z,57.63557
2022-11-10T12:17:07.701Z,57.56664
2022-11-10T12:22:09.314Z,54.83379
2022-11-10T12:27:11.077Z,55.81905
2022-11-10T12:32:12.748Z,57.77123
2022-11-10T12:37:14.425Z,54.87366
2022-11-10T12:42:16.260Z,56.24283
2022-11-10T12:47:17.886Z,56.77866
2022-11-10T12:52:19.511Z,56.85891
2022-11-10T12:57:21.197Z,56.56441
2022-11-10T13:02:22.795Z,54.51368
2022-11-10T13:07:24.539Z,56.7323
2022-11-10T13:12:26.208Z,55.94038
2022-11-10T13:17:27.788Z,55.61263
2022-11-10T13:22:29.421Z,55.28403
2022-11-10T13:27:31.169Z,55.08818
2022-11-10T13:32:32.824Z,55.53182
2022-11-10T13:37:34.475Z,54.83634
2022-11-10T13:42:36.201Z,54.28812
2022-11-10T13:47:37.860Z,55.72603
2022-11-10T13:52:39.544Z,54.98962
2022-11-10T13:57:41.622Z,55.33873
2022-11-10T14:02:43.307Z,55.58128
2022-11-10T14:07:44.950Z,54.28654
2022-11-10T14:12:46.645Z,53.57592
2022-11-10T14:17:48.245Z,55.51476
2022-11-10T14:22:50.512Z,54.07337
2022-11-10T14:27:57.662Z,53.98554
2022-11-10T14:32:59.950Z,54.00539
2022-11-10T14:38:01.663Z,55.10571
2022-11-10T14:43:03.332Z,54.95815
2022-11-10T14:48:05.019Z,55.68855
2022-11-10T14:53:06.700Z,57.35243
2022-11-10T14:58:08.345Z,55.61615
2022-11-10T15:03:10.154Z,55.14921
2022-11-10T15:08:11.794Z,54.91026
2022-11-10T15:13:13.411Z,55.73746
2022-11-10T15:18:15.201Z,55.41627
2022-11-10T15:23:16.820Z,54.19856
2022-11-10T15:28:18.492Z,54.21256
2022-11-10T15:33:20.254Z,54.0297
2022-11-10T15:38:22.369Z,54.03059
2022-11-10T15:43:24.579Z,52.44437
2022-11-10T15:48:26.757Z,53.75236
2022-11-10T15:53:28.436Z,54.50904
2022-11-10T15:58:30.076Z,54.76619
2022-11-10T16:03:31.760Z,53.43723
2022-11-10T16:08:33.473Z,53.79578
2022-11-10T16:13:35.177Z,53.09348
2022-11-10T16:18:42.591Z,51.80379
2022-11-10T16:23:45.446Z,52.64579
2022-11-10T16:28:47.241Z,53.0987
2022-11-10T16:33:49.006Z,53.71239
2022-11-10T16:38:50.818Z,54.31084
2022-11-10T16:43:53.478Z,51.67846
2022-11-10T16:48:55.154Z,51.9408
2022-11-10T16:53:56.871Z,51.52617
2022-11-10T16:58:58.587Z,52.88517
2022-11-10T17:04:00.506Z,51.42839
2022-11-10T17:09:02.190Z,52.25282
2022-11-10T17:14:03.891Z,51.29754
2022-11-10T17:19:05.530Z,53.14068
2022-11-10T17:24:07.111Z,52.94913
2022-11-10T17:29:08.719Z,53.46342
2022-11-10T17:34:10.348Z,53.08419
2022-11-10T17:39:12.141Z,53.20638
2022-11-10T17:44:13.774Z,53.79871
2022-11-10T17:49:15.418Z,52.4016
2022-11-10T17:54:17.107Z,52.35221
2022-11-10T17:59:18.767Z,53.61002
2022-11-10T18:04:20.486Z,52.94665
2022-11-10T18:09:22.132Z,55.25104
2022-11-10T18:14:23.953Z,53.55183
2022-11-10T18:19:25.637Z,53.21072
2022-11-10T18:24:27.387Z,54.66856
2022-11-10T18:29:29.011Z,53.31862
2022-11-10T18:34:30.657Z,53.58551
2022-11-10T18:39:32.300Z,52.10617
2022-11-10T18:44:34.308Z,52.3873
2022-11-10T18:49:36.260Z,51.22909
2022-11-10T18:54:38.221Z,50.18688
2022-11-10T18:59:39.984Z,48.13903
2022-11-10T19:04:41.967Z,49.96807
2022-11-10T19:09:43.704Z,48.98554
2022-11-10T19:14:45.349Z,48.90145
2022-11-10T19:19:49.876Z,46.41389
2022-11-10T19:25:08.063Z,49.44523
2022-11-10T19:30:10.506Z,47.16548
2022-11-10T19:35:12.194Z,49.86539
2022-11-10T19:40:13.944Z,49.37729
2022-11-10T19:45:15.599Z,48.67628
2022-11-10T19:50:17.235Z,45.58671
2022-11-10T19:55:18.966Z,44.18417
2022-11-10T20:00:20.613Z,45.00807
2022-11-10T20:05:22.315Z,43.15425
2022-11-10T20:10:23.921Z,43.45583
2022-11-10T20:15:25.863Z,44.52305
2022-11-10T20:20:27.478Z,44.00498
2022-11-10T20:25:29.153Z,44.48913
2022-11-10T20:30:30.772Z,44.15258
2022-11-10T20:35:32.431Z,44.10999
2022-11-10T20:40:44.061Z,44.23686
2022-11-10T20:45:46.928Z,42.90772
2022-11-10T20:50:48.633Z,45.1531
2022-11-10T20:55:54.024Z,43.73535
2022-11-10T21:00:55.974Z,43.26084
2022-11-10T21:05:57.621Z,43.80899
2022-11-10T21:10:59.357Z,44.64479
2022-11-10T21:16:01.039Z,42.39294
2022-11-10T21:21:02.641Z,44.57304
2022-11-10T21:26:04.233Z,41.61769
2022-11-10T21:31:05.842Z,43.87658
2022-11-10T21:36:07.487Z,41.09061
2022-11-10T21:41:09.117Z,43.19322
2022-11-10T21:46:10.737Z,42.40776
2022-11-10T21:51:12.405Z,44.27516
2022-11-10T21:56:14.059Z,43.03341
2022-11-10T22:01:15.772Z,42.7718
2022-11-10T22:06:17.722Z,42.39633
2022-11-10T22:11:19.342Z,43.57798
2022-11-10T22:16:20.994Z,43.44933
2022-11-10T22:21:22.675Z,44.72422
2022-11-10T22:26:24.564Z,45.81323
2022-11-10T22:31:26.256Z,46.7084
2022-11-10T22:36:28.066Z,49.29907
2022-11-10T22:41:29.789Z,47.91245
2022-11-10T22:46:31.389Z,48.47069
2022-11-10T22:51:33.025Z,47.60671
2022-11-10T22:56:34.724Z,47.86778
2022-11-10T23:01:36.427Z,49.23988
2022-11-10T23:06:38.121Z,48.33733
2022-11-10T23:11:39.916Z,49.54213
2022-11-10T23:16:41.580Z,49.88247
2022-11-10T23:21:43.214Z,48.65588
2022-11-10T23:26:44.967Z,48.86457
2022-11-10T23:31:47.014Z,53.30969
2022-11-10T23:36:48.720Z,51.23499
2022-11-10T23:41:50.457Z,51.0634
2022-11-10T23:46:52.208Z,50.61204
2022-11-10T23:51:53.851Z,53.10707
2022-11-10T23:56:55.847Z,50.84949
